Airfield :
LOGIN :

Register | Disclaimer

   EN    FR    IT 

 










Legend :    VFR   Marginal VFR   IFR   Intensive IFR   Very Intensive IFR
Visi :
Ceiling :
>= 8 km
>= 3000ft
5 to 8 km
1000 to 3000 ft
1500m to 5 km
500 to 1000 ft
800 to 1500m
200 to 500 ft
< 800m
< 200 ft
Symbols :   Thunderstorms  Fog  Heavy snow  Heavy precipitations  Wind > 20 kt
SIGMETs :     Misc.  Thunderstorms  Icing  Turbulence  Mountain Waves  Volcanic Ashes







- Airport Elevation : 659 ft
- IATA code : LGG


EBLG - Liège

CURRENT METAR :
  • 190850Z 03010KT 9999 FEW006 BKN010 03/02 Q1018 BECMG BKN015

EXPIRED METARs :
  • 190820Z 03009KT 8000 FEW006 BKN010 03/02 Q1019 BECMG BKN015
  • 190750Z 03007KT 5000 BR FEW006 BKN010 02/02 Q1019 BECMG BKN015
  • 190720Z 04009KT 4000 BR SCT003 BKN006 02/01 Q1019 BECMG 5000 BR SCT006 BKN010
  • 190650Z 03008KT 3200 BR BKN003 01/01 Q1019 BECMG 5000 BR SCT003 BKN010FT
  • 190620Z 04008KT 010V100 3500 BR SCT004 BKN005 01/01 Q1020 TEMPO BKN004

TAF TAF EBLG
Valid from the 19 at 06:00 until the 20 at 12:00 UTC


190500Z 1906/2012 05012KT 9999 SCT007 BKN011
PROB30
TEMPO 1906/1908 4000 BR -DZ BKN005
BECMG 1908/1910 SCT012 BKN020
PROB30
TEMPO 1910/1918 04016G28KT SHRA
PROB30
TEMPO 1918/2009 4000 -SHSNRA -SHSN
No reported NOTAMs for that airfield.



MET'MAP, your aeronautical weather chart ! - Copyright ORBIFLY December 2007 - Disclaimer

ORBIFLY MET'MAP TEAM :

Programming & Development : Alexandra Zaïnal
Concept & Development : Baudouin d'Aumeries
Co-Development & Prog : Marc-Olivier Méhu
Technical & hardware support : Manuel Goepfert

Contact : metmap@orbifly.com




SOURCES & CREDITS :

   NOAA